Time;durP1;ratioP1;P1;durP2;ratioP2;P2;SDS_P1;SDS_P2;PMS_P1;PMS_P2;Temp;Humidity;BMP_temperature;BMP_pressure;BME280_temperature;BME280_humidity;BME280_pressure;Samples;Min_cycle;Max_cycle;Signal;HPM_P1;HPM_P2
2021/04/17 04:30:53;;;;;;;12.70;6.37;;;6.50;99.90;;;;;;5015296;23;20263;-91
2021/04/17 04:33:18;;;;;;;13.50;5.83;;;6.40;99.90;;;;;;4879484;29;20188;-94
2021/04/17 04:35:44;;;;;;;16.53;6.50;;;6.40;99.90;;;;;;4885099;29;20217;-96
2021/04/17 04:38:10;;;;;;;10.67;5.87;;;6.30;99.90;;;;;;4870699;29;20186;-95
2021/04/17 04:40:35;;;;;;;9.70;5.60;;;6.40;99.90;;;;;;4889838;29;20170;-96
2021/04/17 04:43:01;;;;;;;10.70;5.53;;;6.40;99.90;;;;;;4890036;29;20177;-92
2021/04/17 04:45:28;;;;;;;9.90;6.00;;;6.30;99.90;;;;;;4898649;29;20266;-95
2021/04/17 04:47:53;;;;;;;10.40;5.63;;;6.20;99.90;;;;;;4868781;29;20551;-91
2021/04/17 04:50:19;;;;;;;9.80;5.60;;;6.20;99.90;;;;;;4899904;29;20190;-94
2021/04/17 04:52:46;;;;;;;11.80;6.00;;;6.10;99.90;;;;;;4903425;29;20213;-93
2021/04/17 04:55:12;;;;;;;10.00;5.63;;;6.10;99.90;;;;;;4887623;29;20189;-91
2021/04/17 04:57:37;;;;;;;12.03;5.70;;;6.00;99.90;;;;;;4885213;29;20237;-90
2021/04/17 05:00:04;;;;;;;13.37;6.13;;;6.00;99.90;;;;;;4886353;29;20190;-92
2021/04/17 05:02:30;;;;;;;13.17;6.07;;;6.00;99.90;;;;;;4886192;29;20185;-91
2021/04/17 05:04:56;;;;;;;12.50;6.07;;;6.00;99.90;;;;;;4886019;29;20236;-91
2021/04/17 05:07:21;;;;;;;13.43;6.50;;;6.00;99.90;;;;;;4885672;29;20186;-91
2021/04/17 05:09:47;;;;;;;15.03;6.80;;;6.00;99.90;;;;;;4885434;29;20193;-91
2021/04/17 05:12:13;;;;;;;13.73;6.57;;;6.00;99.90;;;;;;4868817;29;20573;-90
2021/04/17 05:14:38;;;;;;;13.20;6.53;;;6.00;99.90;;;;;;4867776;29;20181;-91
2021/04/17 05:17:04;;;;;;;10.27;5.90;;;6.10;99.90;;;;;;4869063;29;20265;-94
2021/04/17 05:19:30;;;;;;;18.27;6.40;;;6.10;99.90;;;;;;4867317;29;20182;-95
2021/04/17 05:21:57;;;;;;;13.00;6.57;;;6.10;99.90;;;;;;4867189;29;20242;-92
2021/04/17 05:24:23;;;;;;;14.10;6.33;;;6.20;99.90;;;;;;4865957;29;20662;-91
2021/04/17 05:26:49;;;;;;;16.10;6.13;;;6.30;99.90;;;;;;4866327;29;20190;-91
2021/04/17 05:29:14;;;;;;;12.23;6.43;;;6.30;99.90;;;;;;4867940;29;20205;-91
2021/04/17 05:31:40;;;;;;;11.63;6.83;;;6.20;99.90;;;;;;4868903;29;20186;-91
2021/04/17 05:34:06;;;;;;;13.07;6.10;;;6.20;99.90;;;;;;4868757;29;20186;-90
2021/04/17 05:36:33;;;;;;;10.60;6.23;;;6.30;99.90;;;;;;4868953;29;20189;-91
2021/04/17 05:38:58;;;;;;;15.77;6.77;;;6.30;99.90;;;;;;4867500;29;20242;-90
2021/04/17 05:41:27;;;;;;;13.20;6.43;;;6.40;99.90;;;;;;4866016;29;20182;-90
2021/04/17 05:43:54;;;;;;;12.57;5.87;;;6.40;99.90;;;;;;4865403;29;20238;-91
2021/04/17 05:46:20;;;;;;;14.83;6.63;;;6.30;99.90;;;;;;4865955;29;20256;-90
2021/04/17 05:48:45;;;;;;;12.60;6.13;;;6.40;99.90;;;;;;4866836;29;20217;-92
2021/04/17 05:51:11;;;;;;;16.40;6.03;;;6.50;99.90;;;;;;4868895;29;20196;-94
2021/04/17 05:53:37;;;;;;;12.33;6.90;;;6.70;99.90;;;;;;4869362;29;20186;-95
2021/04/17 05:56:02;;;;;;;10.83;5.67;;;6.80;99.90;;;;;;4870587;29;20186;-93
2021/04/17 05:58:28;;;;;;;11.80;6.43;;;6.90;99.90;;;;;;4871505;29;20648;-94
2021/04/17 06:00:56;;;;;;;9.93;6.30;;;7.10;99.90;;;;;;4870421;29;20213;-95
2021/04/17 06:03:21;;;;;;;9.73;6.30;;;7.30;99.90;;;;;;4870578;29;20189;-92
2021/04/17 06:05:47;;;;;;;13.43;6.10;;;7.30;99.90;;;;;;4871483;29;20301;-90
2021/04/17 06:08:14;;;;;;;13.87;6.63;;;7.20;99.90;;;;;;4840204;29;20206;-90
2021/04/17 06:10:39;;;;;;;17.80;6.57;;;7.30;99.90;;;;;;4868736;29;20202;-90
2021/04/17 06:13:05;;;;;;;15.80;6.70;;;7.30;99.90;;;;;;4875047;29;20182;-90
2021/04/17 06:15:31;;;;;;;12.47;6.07;;;7.40;99.90;;;;;;4873721;29;20238;-90
2021/04/17 06:17:57;;;;;;;13.20;5.67;;;7.30;99.90;;;;;;4870434;29;20182;-91
2021/04/17 06:20:22;;;;;;;13.50;6.57;;;7.40;99.90;;;;;;4868884;29;20190;-91
2021/04/17 06:22:48;;;;;;;11.03;6.13;;;7.60;99.90;;;;;;4866880;29;20182;-91
2021/04/17 06:25:14;;;;;;;13.80;6.20;;;7.80;99.40;;;;;;4871021;29;20215;-96
2021/04/17 06:27:40;;;;;;;12.53;6.10;;;7.70;99.70;;;;;;4874413;29;20171;-94
2021/04/17 06:30:08;;;;;;;12.77;6.00;;;7.80;99.80;;;;;;4869644;29;20239;-96
2021/04/17 06:32:34;;;;;;;9.20;5.23;;;7.90;99.00;;;;;;4873942;29;20201;-96
2021/04/17 06:34:59;;;;;;;9.53;5.80;;;8.00;98.40;;;;;;4873396;29;20189;-96
2021/04/17 06:37:25;;;;;;;10.97;5.70;;;8.00;98.40;;;;;;4872824;29;20186;-96
2021/04/17 06:39:51;;;;;;;9.43;5.00;;;7.90;98.30;;;;;;4870892;29;20205;-96
2021/04/17 06:42:20;;;;;;;9.70;5.37;;;8.20;97.80;;;;;;4871717;29;20189;-91
2021/04/17 06:44:51;;;;;;;9.30;5.00;;;8.20;97.40;;;;;;4866421;29;20210;-91
2021/04/17 06:47:16;;;;;;;11.40;5.60;;;8.30;97.10;;;;;;4864789;29;20635;-91
2021/04/17 06:49:43;;;;;;;13.97;5.53;;;8.30;97.30;;;;;;4864659;29;20182;-91
2021/04/17 06:52:13;;;;;;;10.27;5.00;;;8.30;97.10;;;;;;4864415;29;20213;-91
2021/04/17 06:54:40;;;;;;;11.20;5.50;;;8.20;97.10;;;;;;4864604;29;20183;-91
2021/04/17 06:57:06;;;;;;;10.23;5.00;;;8.20;97.20;;;;;;4864236;29;20222;-91
2021/04/17 06:59:33;;;;;;;8.60;5.43;;;8.30;97.00;;;;;;4864431;29;20275;-90
2021/04/17 07:01:59;;;;;;;11.00;5.37;;;8.30;97.30;;;;;;4864287;29;20182;-91
2021/04/17 07:04:26;;;;;;;9.87;5.50;;;8.30;96.90;;;;;;4864181;29;20181;-91
2021/04/17 07:06:53;;;;;;;9.67;5.27;;;8.40;96.90;;;;;;4863892;29;20647;-90
2021/04/17 07:09:21;;;;;;;12.53;4.83;;;8.50;96.70;;;;;;4864411;29;20647;-91
2021/04/17 07:11:47;;;;;;;8.20;5.20;;;8.50;96.50;;;;;;4864310;29;20201;-90
2021/04/17 07:14:14;;;;;;;12.47;5.60;;;8.70;96.00;;;;;;4864840;29;20202;-90
2021/04/17 07:16:59;;;;;;;9.40;5.10;;;8.70;96.10;;;;;;4864049;29;20194;-91
2021/04/17 07:19:59;;;;;;;9.47;5.00;;;8.50;96.50;;;;;;4863734;29;20193;-91
2021/04/17 07:22:32;;;;;;;7.93;5.17;;;8.50;96.30;;;;;;4864282;29;20234;-90
2021/04/17 07:25:04;;;;;;;10.33;5.07;;;8.40;96.50;;;;;;4864259;29;20214;-90
2021/04/17 07:27:35;;;;;;;8.73;5.07;;;8.40;96.30;;;;;;4863673;29;20281;-91
2021/04/17 07:30:07;;;;;;;11.27;5.20;;;8.60;96.20;;;;;;4863874;29;20228;-91
2021/04/17 07:32:32;;;;;;;9.40;5.20;;;8.60;96.30;;;;;;4863760;29;20225;-91
2021/04/17 07:35:06;;;;;;;7.27;4.70;;;8.60;96.60;;;;;;4863375;29;20189;-90
2021/04/17 07:37:32;;;;;;;12.20;5.20;;;8.70;95.90;;;;;;4863677;29;20192;-91
2021/04/17 07:40:25;;;;;;;10.57;5.77;;;8.80;95.90;;;;;;4863673;29;20214;-91
2021/04/17 07:42:57;;;;;;;15.47;6.87;;;8.90;95.80;;;;;;4864290;29;20514;-91
2021/04/17 07:45:27;;;;;;;10.20;5.87;;;9.00;95.60;;;;;;4863585;29;20214;-90
2021/04/17 07:47:59;;;;;;;14.43;6.80;;;9.10;95.50;;;;;;4863645;29;20214;-91
2021/04/17 07:50:33;;;;;;;10.27;5.23;;;9.20;95.20;;;;;;4863279;29;20221;-90
2021/04/17 07:53:00;;;;;;;11.07;5.20;;;9.30;95.00;;;;;;4863815;29;20272;-91
2021/04/17 07:55:31;;;;;;;11.93;5.27;;;9.40;94.60;;;;;;4864035;29;20249;-90
2021/04/17 07:57:57;;;;;;;10.67;5.30;;;9.40;94.30;;;;;;4863318;29;20269;-91
2021/04/17 08:00:24;;;;;;;7.97;4.37;;;9.60;94.10;;;;;;4863045;29;20229;-90
2021/04/17 08:02:52;;;;;;;7.50;4.57;;;9.60;94.20;;;;;;4863587;29;20210;-91
2021/04/17 08:05:20;;;;;;;11.50;5.87;;;9.60;93.90;;;;;;4863969;29;20229;-90
2021/04/17 08:07:47;;;;;;;10.20;4.80;;;9.70;93.60;;;;;;4863731;29;20189;-90
2021/04/17 08:10:15;;;;;;;9.10;3.90;;;9.60;93.90;;;;;;4863591;29;20182;-91
2021/04/17 08:12:42;;;;;;;9.53;5.33;;;9.60;93.90;;;;;;4863498;29;20178;-91
2021/04/17 08:15:17;;;;;;;8.33;5.17;;;9.70;93.50;;;;;;4863252;29;20281;-91
2021/04/17 08:17:45;;;;;;;9.53;5.23;;;9.70;93.60;;;;;;4863479;29;20579;-90
2021/04/17 08:20:16;;;;;;;8.53;4.93;;;9.80;93.40;;;;;;4863367;29;20199;-91
2021/04/17 08:22:44;;;;;;;8.20;4.40;;;9.90;92.90;;;;;;4862998;29;20197;-91
2021/04/17 08:25:11;;;;;;;8.93;4.67;;;9.80;93.20;;;;;;4876412;29;20217;-91
2021/04/17 08:27:37;;;;;;;8.37;4.97;;;9.80;93.20;;;;;;4863335;29;20651;-90
2021/04/17 08:30:09;;;;;;;11.23;5.13;;;9.80;93.10;;;;;;4863654;29;20250;-91
2021/04/17 08:32:40;;;;;;;9.90;4.70;;;10.10;92.90;;;;;;4863358;29;20198;-91
2021/04/17 08:35:11;;;;;;;12.53;5.37;;;10.20;92.30;;;;;;4863215;29;20184;-91
2021/04/17 08:37:53;;;;;;;8.93;4.80;;;10.20;92.00;;;;;;4863145;29;20224;-91
2021/04/17 08:40:38;;;;;;;8.70;4.77;;;10.40;91.80;;;;;;4863887;29;20208;-91
2021/04/17 08:43:10;;;;;;;6.30;4.40;;;10.40;91.70;;;;;;4863251;29;20651;-91
2021/04/17 08:45:54;;;;;;;6.23;4.07;;;10.30;91.90;;;;;;4863013;29;20221;-90
2021/04/17 08:48:48;;;;;;;12.67;4.77;;;10.50;91.50;;;;;;4861441;29;20206;-90
2021/04/17 08:51:30;;;;;;;8.40;4.47;;;10.50;90.60;;;;;;4862699;29;20182;-90
2021/04/17 08:54:02;;;;;;;6.27;4.27;;;10.50;91.00;;;;;;4862295;29;20210;-91
2021/04/17 08:56:47;;;;;;;9.30;4.87;;;10.50;91.20;;;;;;4863391;29;20193;-90
2021/04/17 08:59:17;;;;;;;11.30;4.70;;;10.50;90.70;;;;;;4864188;29;20193;-90
2021/04/17 09:01:44;;;;;;;7.67;4.20;;;10.60;91.00;;;;;;4863157;29;20190;-91
2021/04/17 09:04:11;;;;;;;7.20;4.30;;;10.70;90.40;;;;;;4866524;29;20188;-91
2021/04/17 09:06:46;;;;;;;7.80;4.20;;;10.70;90.00;;;;;;4868720;29;20213;-91
2021/04/17 09:09:20;;;;;;;8.97;4.73;;;10.80;90.20;;;;;;4885077;29;20183;-90
2021/04/17 09:11:54;;;;;;;6.20;4.03;;;11.00;89.60;;;;;;4897923;29;20213;-89
2021/04/17 09:14:27;;;;;;;5.03;3.70;;;11.20;88.70;;;;;;4866444;29;20186;-90
2021/04/17 09:16:54;;;;;;;6.20;3.93;;;11.10;89.00;;;;;;4866041;29;20647;-90
2021/04/17 09:19:41;;;;;;;8.37;4.83;;;11.10;88.30;;;;;;4866286;29;20711;-90
2021/04/17 09:22:25;;;;;;;7.63;3.83;;;11.10;88.10;;;;;;4865878;29;20273;-89
2021/04/17 09:25:01;;;;;;;7.07;4.53;;;11.30;87.60;;;;;;4881408;29;20304;-90
2021/04/17 09:27:34;;;;;;;8.00;4.33;;;11.40;88.10;;;;;;4866346;29;20181;-90
2021/04/17 09:30:07;;;;;;;7.10;3.60;;;11.40;86.50;;;;;;4869969;29;20212;-90
2021/04/17 09:32:38;;;;;;;9.50;3.47;;;11.50;84.60;;;;;;4858504;29;20274;-91
2021/04/17 09:35:22;;;;;;;9.63;3.83;;;11.50;85.80;;;;;;4865366;29;20186;-90
2021/04/17 09:38:02;;;;;;;6.00;3.93;;;11.60;84.00;;;;;;4866600;29;20198;-90
2021/04/17 09:40:33;;;;;;;5.37;3.13;;;11.60;83.60;;;;;;4867316;29;20190;-90
2021/04/17 09:43:00;;;;;;;10.17;3.77;;;11.50;82.50;;;;;;4869672;29;20184;-90
2021/04/17 09:45:31;;;;;;;7.67;3.40;;;11.60;82.70;;;;;;4868718;29;20602;-90
2021/04/17 09:48:03;;;;;;;6.43;3.70;;;11.70;82.90;;;;;;4872516;29;20190;-91
2021/04/17 09:50:30;;;;;;;4.97;3.63;;;11.90;81.40;;;;;;4867553;29;20670;-90
2021/04/17 09:53:09;;;;;;;4.30;3.20;;;11.90;80.80;;;;;;4868310;29;20194;-90
2021/04/17 09:55:49;;;;;;;7.47;3.80;;;12.00;80.60;;;;;;4868673;29;20217;-90
2021/04/17 09:58:37;;;;;;;8.33;3.63;;;12.00;79.40;;;;;;4866889;29;20193;-90
2021/04/17 10:01:14;;;;;;;7.07;4.07;;;12.10;79.60;;;;;;4867835;29;20197;-90
2021/04/17 10:03:42;;;;;;;6.13;3.77;;;12.10;79.90;;;;;;4868678;29;20708;-91
2021/04/17 10:06:30;;;;;;;5.97;3.70;;;12.20;79.30;;;;;;4870266;29;20299;-90
2021/04/17 10:09:15;;;;;;;9.07;3.70;;;12.20;78.70;;;;;;4884553;29;20193;-90
2021/04/17 10:11:43;;;;;;;6.10;3.60;;;12.30;78.70;;;;;;4862753;29;20210;-90
2021/04/17 10:14:15;;;;;;;5.90;3.17;;;12.40;77.10;;;;;;4863526;29;20186;-91
2021/04/17 10:16:47;;;;;;;6.87;4.10;;;12.30;77.40;;;;;;4852072;29;20233;-90
2021/04/17 10:19:17;;;;;;;6.80;4.13;;;12.50;76.40;;;;;;4865526;29;20190;-91
2021/04/17 10:21:48;;;;;;;6.47;3.33;;;12.70;75.80;;;;;;4865015;29;20198;-90
2021/04/17 10:24:23;;;;;;;7.60;3.17;;;12.90;74.70;;;;;;4865143;29;20703;-90
2021/04/17 10:26:55;;;;;;;7.77;4.00;;;13.00;72.60;;;;;;4865140;29;20320;-90
2021/04/17 10:29:32;;;;;;;6.57;3.30;;;13.10;70.30;;;;;;4865040;29;20193;-91
2021/04/17 10:32:00;;;;;;;4.67;2.87;;;13.10;69.30;;;;;;4864517;29;20194;-90
2021/04/17 10:34:27;;;;;;;6.03;3.43;;;13.20;69.60;;;;;;4864628;29;20190;-90
2021/04/17 10:36:58;;;;;;;5.47;3.60;;;13.30;70.00;;;;;;4865121;29;20217;-90
2021/04/17 10:39:24;;;;;;;5.83;3.73;;;13.40;70.40;;;;;;4865164;29;20221;-91
2021/04/17 10:41:57;;;;;;;5.83;3.20;;;13.70;69.60;;;;;;4864235;29;20533;-90
2021/04/17 10:44:23;;;;;;;5.03;2.70;;;13.80;66.80;;;;;;4864820;29;20189;-90
2021/04/17 10:46:50;;;;;;;4.67;2.83;;;14.00;66.70;;;;;;4864721;29;20592;-90
2021/04/17 10:49:36;;;;;;;7.87;3.47;;;14.10;64.80;;;;;;4865406;29;20183;-90
2021/04/17 10:52:28;;;;;;;5.63;3.43;;;14.10;63.90;;;;;;4864762;29;20194;-90
2021/04/17 10:54:55;;;;;;;6.00;3.37;;;14.00;62.60;;;;;;4865155;29;20186;-90
2021/04/17 10:57:21;;;;;;;4.97;3.10;;;13.90;63.20;;;;;;4864438;29;20198;-90
2021/04/17 10:59:55;;;;;;;6.10;3.03;;;13.90;63.70;;;;;;4864519;29;20554;-90
2021/04/17 11:02:34;;;;;;;4.83;3.43;;;13.90;63.80;;;;;;4858670;29;20181;-90
2021/04/17 11:05:02;;;;;;;6.93;3.47;;;14.00;63.60;;;;;;4864904;29;20265;-90
2021/04/17 11:07:35;;;;;;;4.93;3.40;;;14.40;63.00;;;;;;4864416;29;20545;-91
2021/04/17 11:10:05;;;;;;;5.07;3.47;;;15.10;61.90;;;;;;4864488;29;20546;-91
2021/04/17 11:12:32;;;;;;;6.70;3.47;;;16.20;59.60;;;;;;4864090;29;20679;-92
2021/04/17 11:15:18;;;;;;;6.13;4.00;;;17.00;57.70;;;;;;4863169;29;20248;-91
2021/04/17 11:18:04;;;;;;;7.57;3.40;;;17.80;55.70;;;;;;4863398;29;20196;-91
2021/04/17 11:20:31;;;;;;;8.17;3.70;;;18.80;54.20;;;;;;4876661;29;20259;-89
2021/04/17 11:22:56;;;;;;;4.60;3.27;;;19.80;51.50;;;;;;4862241;29;20185;-89
2021/04/17 11:25:22;;;;;;;4.57;3.00;;;20.50;48.60;;;;;;4862992;29;20206;-89
2021/04/17 11:27:51;;;;;;;3.93;3.00;;;20.90;47.90;;;;;;4863806;29;20177;-90
2021/04/17 11:30:17;;;;;;;4.50;3.60;;;21.80;46.00;;;;;;4875270;29;20257;-90
2021/04/17 11:32:42;;;;;;;12.70;3.67;;;22.50;44.30;;;;;;4863377;29;20191;-90
2021/04/17 11:35:12;;;;;;;5.23;2.73;;;23.30;42.30;;;;;;4862969;29;20199;-90
2021/04/17 11:37:37;;;;;;;6.77;3.27;;;23.80;41.50;;;;;;4863521;29;20209;-90
2021/04/17 11:40:05;;;;;;;7.03;3.20;;;24.20;41.00;;;;;;4862723;29;20236;-90
2021/04/17 11:42:34;;;;;;;4.80;3.23;;;24.60;40.10;;;;;;4862075;29;20187;-89
2021/04/17 11:45:01;;;;;;;4.70;3.40;;;23.70;39.60;;;;;;4873080;29;20208;-89
2021/04/17 11:47:27;;;;;;;7.50;3.53;;;23.30;39.80;;;;;;4864492;29;20218;-90
2021/04/17 11:49:53;;;;;;;5.63;3.43;;;23.30;40.00;;;;;;4864075;29;20221;-90
2021/04/17 11:52:21;;;;;;;4.83;3.30;;;22.50;40.80;;;;;;4863836;29;20189;-91
2021/04/17 11:54:49;;;;;;;5.00;3.43;;;22.00;40.80;;;;;;4864706;29;20655;-91
2021/04/17 11:57:18;;;;;;;4.17;3.33;;;21.30;41.20;;;;;;4864927;29;20253;-90
2021/04/17 11:59:50;;;;;;;7.10;3.43;;;20.70;42.50;;;;;;4872216;29;20191;-90
2021/04/17 12:02:17;;;;;;;6.93;2.87;;;21.20;41.90;;;;;;4882297;29;20205;-90
2021/04/17 12:04:43;;;;;;;4.37;3.03;;;22.00;41.30;;;;;;4874761;29;20174;-90
2021/04/17 12:07:13;;;;;;;5.63;3.10;;;23.10;39.70;;;;;;4864102;29;20189;-91
2021/04/17 12:09:39;;;;;;;6.40;3.40;;;24.40;37.80;;;;;;4863746;29;20193;-91
2021/04/17 12:12:08;;;;;;;5.47;3.10;;;24.90;37.40;;;;;;4864113;29;20358;-91
2021/04/17 12:14:33;;;;;;;6.43;3.50;;;25.90;37.80;;;;;;4863756;29;20202;-91
2021/04/17 12:17:01;;;;;;;4.90;2.87;;;27.00;37.30;;;;;;4864050;29;20289;-91
2021/04/17 12:19:28;;;;;;;6.17;3.70;;;27.20;35.80;;;;;;4864177;29;20627;-92
2021/04/17 12:21:55;;;;;;;6.20;3.40;;;27.10;36.20;;;;;;4864046;29;20249;-90
2021/04/17 12:24:21;;;;;;;5.23;3.00;;;27.50;35.50;;;;;;4863539;29;20181;-91
2021/04/17 12:26:48;;;;;;;3.93;2.70;;;27.70;34.90;;;;;;4864156;29;20229;-91
2021/04/17 12:29:14;;;;;;;4.93;3.17;;;27.80;33.70;;;;;;4864059;29;20202;-91
2021/04/17 12:31:40;;;;;;;5.17;3.30;;;27.70;33.80;;;;;;4863733;29;20296;-91
2021/04/17 12:34:12;;;;;;;4.97;3.30;;;28.30;33.00;;;;;;4863777;29;20194;-91
2021/04/17 12:36:38;;;;;;;5.20;2.63;;;28.40;32.80;;;;;;4863754;29;20289;-91
2021/04/17 12:39:05;;;;;;;3.90;3.00;;;28.50;33.40;;;;;;4866431;29;20269;-91
2021/04/17 12:41:33;;;;;;;4.33;2.87;;;28.20;33.50;;;;;;4861840;29;20194;-91
2021/04/17 12:44:00;;;;;;;4.20;3.10;;;27.20;33.60;;;;;;4861145;29;20644;-91
2021/04/17 12:46:26;;;;;;;6.33;3.00;;;26.20;33.50;;;;;;4861840;29;21140;-91
2021/04/17 12:48:53;;;;;;;4.47;3.30;;;25.40;34.50;;;;;;4861549;29;20633;-92
2021/04/17 12:51:19;;;;;;;4.67;3.00;;;25.80;35.40;;;;;;4862599;29;20201;-91
2021/04/17 12:53:46;;;;;;;4.73;2.80;;;26.00;33.90;;;;;;4861960;29;20189;-92
2021/04/17 12:56:12;;;;;;;4.03;3.07;;;26.10;34.50;;;;;;4863654;29;20198;-91
2021/04/17 12:58:40;;;;;;;3.33;2.97;;;26.60;34.40;;;;;;4861924;29;20265;-91
2021/04/17 13:01:07;;;;;;;4.60;2.70;;;27.20;33.60;;;;;;4867785;29;20186;-91
2021/04/17 13:03:34;;;;;;;4.50;3.03;;;27.60;33.80;;;;;;4867253;29;20230;-92
2021/04/17 13:06:01;;;;;;;4.83;3.00;;;27.40;33.60;;;;;;4866573;29;20806;-91
2021/04/17 13:08:30;;;;;;;3.57;2.83;;;26.80;33.70;;;;;;4866950;29;20186;-92
2021/04/17 13:10:58;;;;;;;6.57;3.00;;;26.90;33.60;;;;;;4867337;29;20301;-91
2021/04/17 13:13:27;;;;;;;5.25;2.75;;;27.40;33.40;;;;;;4867376;29;20194;-93
2021/04/17 13:15:53;;;;;;;5.13;2.67;;;28.40;32.70;;;;;;4851410;29;20198;-92
2021/04/17 13:18:21;;;;;;;4.40;2.88;;;29.10;32.00;;;;;;4866495;29;20189;-91
2021/04/17 13:20:48;;;;;;;3.17;2.50;;;29.70;31.30;;;;;;4866314;29;20188;-92
2021/04/17 13:23:14;;;;;;;3.60;2.40;;;29.80;31.10;;;;;;4866377;29;20563;-91
2021/04/17 13:25:42;;;;;;;4.85;2.90;;;30.00;30.90;;;;;;4866918;29;20209;-91
2021/04/17 13:28:10;;;;;;;3.30;2.83;;;30.20;30.40;;;;;;4867188;29;20182;-92
2021/04/17 13:30:37;;;;;;;4.20;2.80;;;29.90;30.50;;;;;;4874038;29;20198;-91
2021/04/17 13:33:06;;;;;;;4.88;2.53;;;30.30;30.80;;;;;;4866311;29;20273;-91
2021/04/17 13:35:32;;;;;;;4.05;2.60;;;30.90;30.00;;;;;;4866959;29;20260;-92
2021/04/17 13:38:00;;;;;;;5.07;2.60;;;31.00;29.40;;;;;;4866546;29;20198;-91
2021/04/17 13:40:31;;;;;;;5.68;2.80;;;31.10;29.50;;;;;;4866524;29;20181;-91
2021/04/17 13:42:57;;;;;;;4.55;2.90;;;31.10;29.60;;;;;;4866418;29;20178;-91
2021/04/17 13:45:24;;;;;;;4.20;2.95;;;31.10;29.80;;;;;;4866452;29;20208;-93
2021/04/17 13:47:52;;;;;;;3.33;2.33;;;31.30;29.60;;;;;;4866518;29;20194;-92
2021/04/17 13:50:20;;;;;;;3.78;2.40;;;31.30;29.50;;;;;;4865773;29;20201;-92
2021/04/17 13:52:48;;;;;;;3.20;2.42;;;31.50;29.30;;;;;;4865136;29;20200;-91
2021/04/17 13:55:18;;;;;;;3.50;2.50;;;31.40;29.00;;;;;;4865840;29;20292;-91
2021/04/17 13:57:50;;;;;;;4.55;2.58;;;31.30;28.90;;;;;;4865899;29;20186;-91
2021/04/17 14:00:19;;;;;;;3.40;2.50;;;30.90;29.60;;;;;;4866154;29;20234;-91
2021/04/17 14:02:48;;;;;;;3.40;2.50;;;30.90;29.20;;;;;;4865832;29;20273;-92
2021/04/17 14:05:20;;;;;;;5.30;2.50;;;30.70;29.60;;;;;;4865687;29;20292;-92
2021/04/17 14:07:48;;;;;;;2.90;2.60;;;30.40;29.50;;;;;;4865790;29;20197;-92
2021/04/17 14:10:16;;;;;;;3.50;2.50;;;30.50;29.50;;;;;;4866528;29;20301;-96
2021/04/17 14:12:43;;;;;;;4.50;2.65;;;30.80;29.40;;;;;;4866782;29;20190;-92
2021/04/17 14:15:10;;;;;;;4.75;2.58;;;30.80;29.30;;;;;;4867092;29;20186;-96
2021/04/17 14:17:38;;;;;;;3.95;2.90;;;30.90;29.50;;;;;;4870110;29;20273;-93
2021/04/17 14:20:07;;;;;;;4.65;2.60;;;31.30;29.10;;;;;;4866477;29;20610;-92
2021/04/17 14:22:36;;;;;;;5.13;3.03;;;31.20;29.30;;;;;;4869647;29;20198;-92
2021/04/17 14:25:05;;;;;;;3.40;2.42;;;31.20;28.80;;;;;;4862573;29;20191;-93
2021/04/17 14:27:33;;;;;;;3.35;2.20;;;31.10;29.10;;;;;;4866265;29;20643;-92
2021/04/17 14:29:59;;;;;;;2.95;2.30;;;31.10;28.90;;;;;;4868458;29;20201;-92
2021/04/17 14:32:26;;;;;;;3.17;2.58;;;31.10;28.70;;;;;;4864781;29;20771;-92
2021/04/17 14:34:55;;;;;;;3.80;2.47;;;31.20;28.70;;;;;;4870881;29;20191;-92
2021/04/17 14:37:20;;;;;;;4.22;2.50;;;31.00;28.70;;;;;;4864020;29;20204;-93
2021/04/17 14:39:46;;;;;;;4.28;3.00;;;31.00;28.90;;;;;;4864410;29;20584;-92
2021/04/17 14:42:15;;;;;;;4.88;2.60;;;30.90;29.10;;;;;;4865276;29;20197;-93
2021/04/17 14:44:41;;;;;;;5.72;3.00;;;30.80;29.00;;;;;;4863926;29;20261;-92
2021/04/17 14:47:08;;;;;;;7.60;3.15;;;30.70;29.10;;;;;;4864153;29;20316;-92
2021/04/17 14:49:34;;;;;;;3.45;1.92;;;30.90;29.10;;;;;;4868427;29;20276;-91
2021/04/17 14:52:00;;;;;;;4.20;2.50;;;30.80;28.80;;;;;;4866217;29;20258;-92
2021/04/17 14:54:26;;;;;;;5.07;2.33;;;30.80;28.60;;;;;;4864805;29;20566;-92
2021/04/17 14:56:59;;;;;;;4.63;2.40;;;31.10;28.70;;;;;;4864648;29;20193;-92
2021/04/17 14:59:26;;;;;;;4.90;2.53;;;31.30;28.70;;;;;;4864230;29;20193;-92
2021/04/17 15:01:53;;;;;;;2.88;2.33;;;31.20;28.60;;;;;;4864986;29;20216;-93
2021/04/17 15:04:19;;;;;;;4.72;2.53;;;31.10;28.90;;;;;;4864849;29;20237;-92
2021/04/17 15:06:45;;;;;;;3.15;2.63;;;31.10;29.20;;;;;;4864579;29;20213;-92
2021/04/17 15:09:14;;;;;;;5.40;2.60;;;31.10;29.40;;;;;;4864431;29;20188;-92
2021/04/17 15:11:42;;;;;;;3.42;2.72;;;31.50;28.90;;;;;;4864570;29;20308;-92
2021/04/17 15:14:11;;;;;;;3.67;2.97;;;30.90;29.10;;;;;;4864731;29;20233;-92
2021/04/17 15:16:45;;;;;;;3.35;2.38;;;30.70;29.00;;;;;;4864738;29;20182;-92
2021/04/17 15:19:13;;;;;;;3.20;2.35;;;30.80;28.90;;;;;;4866493;29;20182;-92
2021/04/17 15:21:43;;;;;;;3.40;2.78;;;31.30;28.60;;;;;;4864325;29;20166;-93
2021/04/17 15:24:21;;;;;;;4.25;2.30;;;31.10;28.40;;;;;;4864191;29;20178;-92
2021/04/17 15:26:47;;;;;;;3.63;2.50;;;31.00;28.70;;;;;;4864511;29;20727;-92
2021/04/17 15:29:18;;;;;;;3.53;2.10;;;30.80;29.00;;;;;;4861944;29;20182;-92
2021/04/17 15:31:50;;;;;;;5.07;2.80;;;31.00;29.30;;;;;;4862720;29;20207;-92
2021/04/17 15:34:19;;;;;;;5.65;2.47;;;31.00;29.20;;;;;;4867730;29;20188;-92
2021/04/17 15:36:48;;;;;;;4.95;2.90;;;31.10;29.50;;;;;;4872206;29;20182;-92
2021/04/17 15:39:20;;;;;;;5.35;2.63;;;30.70;29.50;;;;;;4864709;29;20182;-92
2021/04/17 15:41:46;;;;;;;3.35;2.60;;;30.80;29.30;;;;;;4859335;29;20250;-92
2021/04/17 15:44:12;;;;;;;6.60;3.03;;;30.80;29.20;;;;;;4863361;29;20202;-92
2021/04/17 15:46:38;;;;;;;6.30;2.10;;;30.40;29.60;;;;;;4868584;29;20287;-91
2021/04/17 15:49:05;;;;;;;4.50;2.50;;;30.00;29.80;;;;;;4877719;29;20193;-92
2021/04/17 15:51:32;;;;;;;3.40;2.53;;;29.90;29.90;;;;;;4863756;29;20185;-90
2021/04/17 15:53:58;;;;;;;5.50;2.70;;;29.60;30.10;;;;;;4864345;29;20185;-91
2021/04/17 15:56:24;;;;;;;4.97;2.17;;;29.50;29.50;;;;;;4863471;29;20189;-90
2021/04/17 16:15:25;;;;;;;3.43;2.60;;;28.70;30.00;;;;;;4884755;29;20241;-93
2021/04/17 16:18:05;;;;;;;4.93;2.50;;;28.70;30.20;;;;;;4865142;29;20190;-92
2021/04/17 16:20:33;;;;;;;5.60;2.67;;;28.30;31.00;;;;;;4866464;29;20531;-93
2021/04/17 16:22:59;;;;;;;3.93;2.20;;;28.40;30.50;;;;;;4865536;29;20185;-96
2021/04/17 16:25:25;;;;;;;5.30;2.30;;;28.60;30.80;;;;;;4868132;29;20201;-92
2021/04/17 16:27:51;;;;;;;3.80;2.30;;;28.40;30.30;;;;;;4883062;29;20234;-92
2021/04/17 16:30:20;;;;;;;5.30;2.10;;;28.00;30.40;;;;;;4868943;29;20209;-92
2021/04/17 16:32:45;;;;;;;3.90;2.07;;;27.80;31.20;;;;;;4865752;29;20280;-92
2021/04/17 16:35:11;;;;;;;6.17;2.57;;;27.70;31.10;;;;;;4868157;29;20245;-92
2021/04/17 16:37:38;;;;;;;5.23;2.40;;;27.60;31.00;;;;;;4865511;29;20200;-92
2021/04/17 16:40:05;;;;;;;7.43;2.50;;;27.50;31.20;;;;;;4863794;29;20198;-91
2021/04/17 16:42:31;;;;;;;4.37;2.10;;;27.50;31.10;;;;;;4864811;29;20330;-92
2021/04/17 16:44:58;;;;;;;2.90;2.20;;;27.40;31.20;;;;;;4864911;29;20283;-91
2021/04/17 16:47:24;;;;;;;4.80;2.53;;;27.10;31.00;;;;;;4865672;29;20193;-95
2021/04/17 16:49:50;;;;;;;3.73;2.33;;;26.50;31.10;;;;;;4866319;29;20188;-92
2021/04/17 16:52:16;;;;;;;4.33;2.37;;;26.20;31.10;;;;;;4881584;29;20186;-93
2021/04/17 16:54:41;;;;;;;3.17;2.20;;;26.10;31.60;;;;;;4865407;29;20664;-95
2021/04/17 16:57:08;;;;;;;5.77;2.20;;;25.90;32.20;;;;;;4865900;29;20599;-90
2021/04/17 16:59:34;;;;;;;4.87;2.30;;;25.80;32.10;;;;;;4865870;29;20189;-93
2021/04/17 17:01:59;;;;;;;3.40;2.17;;;26.00;31.90;;;;;;4865327;29;20637;-92
2021/04/17 17:04:25;;;;;;;6.23;2.60;;;26.00;32.00;;;;;;4865285;29;20203;-91
2021/04/17 17:06:51;;;;;;;9.20;3.67;;;25.70;32.10;;;;;;4865724;29;20229;-91
2021/04/17 17:09:16;;;;;;;8.33;4.10;;;25.40;34.20;;;;;;4864740;29;20245;-91
2021/04/17 17:11:43;;;;;;;8.67;4.77;;;24.70;36.20;;;;;;4865489;29;20245;-90
2021/04/17 17:14:08;;;;;;;15.60;4.70;;;23.90;38.00;;;;;;4865263;29;20186;-90
2021/04/17 17:16:34;;;;;;;12.63;4.10;;;23.20;39.10;;;;;;4865011;29;20201;-92
2021/04/17 17:19:00;;;;;;;10.27;4.27;;;22.40;40.10;;;;;;4859258;29;20174;-91
2021/04/17 17:21:26;;;;;;;9.23;3.93;;;22.10;40.40;;;;;;4869985;29;20184;-92
2021/04/17 17:23:51;;;;;;;8.70;4.40;;;22.20;40.80;;;;;;4864153;29;20189;-93
2021/04/17 17:26:17;;;;;;;16.17;4.20;;;22.10;41.50;;;;;;4865190;29;20215;-93
2021/04/17 17:28:42;;;;;;;10.63;4.47;;;22.00;40.80;;;;;;4863638;29;20572;-95
2021/04/17 17:31:08;;;;;;;10.80;4.40;;;21.90;40.90;;;;;;4865041;29;20222;-94
2021/04/17 17:33:34;;;;;;;11.33;4.23;;;21.50;41.60;;;;;;4864893;29;20711;-94
2021/04/17 17:36:00;;;;;;;12.77;4.90;;;21.00;42.50;;;;;;4863875;29;20175;-95
2021/04/17 17:38:25;;;;;;;13.10;4.67;;;20.60;43.20;;;;;;4862949;29;20640;-92
2021/04/17 17:40:51;;;;;;;12.60;4.10;;;20.10;44.30;;;;;;4864419;29;20186;-94
2021/04/17 17:43:17;;;;;;;10.80;3.90;;;19.90;44.70;;;;;;4864317;29;20198;-92